Terminal Aerodrome Forecast
Issued by NWS Binghamton, NY

Home | Current Version | Previous Version | Text Only | Print | Product List | Glossary On
Versions: 1 2 3 4 5 6 7 8 9 10 11 12 13 14 15 16 17 18
294
FTUS41 KBGM 282339
TAFBGM
TAF
KBGM 282339Z 2900/2924 22006KT P6SM BKN060
     FM290600 29005KT P6SM BKN015
     FM290800 30005KT P6SM BKN008
      TEMPO 2910/2913 4SM BR
     FM291300 32007KT P6SM BKN015
     FM291500 32008KT P6SM BKN035=

USA.gov is the U.S. government's official web portal to all federal, state and local government web resources and services.